Terminal Aerodrome Forecast
Issued by NWS Buffalo, NY

Home | Current Version | Previous Version | Text Only | Print | Product List | Glossary On
Versions: 1 2 3 4 5 6 7 8 9 10 11 12 13 14 15 16 17 18 19 20 21 22
484
FTUS41 KBUF 302323
TAFART
TAF
KART 302323Z 0100/0124 01008KT P6SM BKN200
     FM010300 06005KT P6SM BKN060
     FM010800 09005KT 6SM -RA OVC045
     FM011400 11010G16KT 6SM -RA OVC030
     FM011900 12011G18KT 6SM -SHRA OVC020
     FM012200 11009KT 6SM -SHRA OVC020=

USA.gov is the U.S. government's official web portal to all federal, state and local government web resources and services.